Time;durP1;ratioP1;P1;durP2;ratioP2;P2;SDS_P1;SDS_P2;PMS_P1;PMS_P2;Temp;Humidity;BMP_temperature;BMP_pressure;BME280_temperature;BME280_humidity;BME280_pressure;Samples;Min_cycle;Max_cycle;Signal;HPM_P1;HPM_P2
2023/06/26 00:00:58;;;;;;;0.40;0.40;;;;;;;14.69;68.42;99116.63;4842166;29;20080;-80
2023/06/26 00:03:26;;;;;;;0.40;0.40;;;;;;;14.70;68.45;99120.16;4842646;29;20479;-79
2023/06/26 00:05:53;;;;;;;0.30;0.30;;;;;;;14.66;68.40;99114.44;4825426;29;20057;-80
2023/06/26 00:08:20;;;;;;;0.40;0.40;;;;;;;14.64;68.59;99115.81;4842285;29;20049;-79
2023/06/26 00:10:51;;;;;;;0.40;0.40;;;;;;;14.58;68.52;99114.94;4842058;29;20097;-79
2023/06/26 00:13:18;;;;;;;0.40;0.40;;;;;;;14.59;68.31;99104.94;4842117;29;20143;-80
2023/06/26 00:15:45;;;;;;;0.40;0.40;;;;;;;14.56;68.55;99103.56;4842306;29;20429;-80
2023/06/26 00:18:12;;;;;;;0.40;0.40;;;;;;;14.58;68.78;99114.16;4841667;29;20077;-79
2023/06/26 00:20:39;;;;;;;0.40;0.40;;;;;;;14.54;68.95;99105.72;4841731;29;20058;-79
2023/06/26 00:23:07;;;;;;;0.30;0.30;;;;;;;14.58;68.81;99106.00;4824851;29;20058;-80
2023/06/26 00:25:34;;;;;;;0.40;0.40;;;;;;;14.57;68.96;99105.19;4825142;29;20149;-80
2023/06/26 00:28:01;;;;;;;0.40;0.40;;;;;;;14.51;68.86;99098.09;4841589;29;20172;-80
2023/06/26 00:30:29;;;;;;;0.40;0.40;;;;;;;14.56;68.96;99109.00;4841600;29;20058;-79
2023/06/26 00:32:56;;;;;;;0.40;0.40;;;;;;;14.50;69.19;99099.97;4824867;29;20046;-80
2023/06/26 00:35:23;;;;;;;0.40;0.40;;;;;;;14.49;69.32;99097.53;4841361;29;20466;-79
2023/06/26 00:37:51;;;;;;;0.40;0.40;;;;;;;14.43;69.64;99094.00;4823338;29;20055;-80
2023/06/26 00:40:18;;;;;;;0.40;0.40;;;;;;;14.38;69.86;99096.69;4806397;29;20058;-80
2023/06/26 00:42:45;;;;;;;0.30;0.30;;;;;;;14.34;69.90;99089.34;4822998;29;20058;-80
2023/06/26 00:45:14;;;;;;;0.40;0.40;;;;;;;14.38;69.85;99091.28;4806430;29;20481;-80
2023/06/26 00:47:41;;;;;;;0.40;0.40;;;;;;;14.34;69.86;99095.59;4822933;29;20054;-79
2023/06/26 00:50:09;;;;;;;0.40;0.40;;;;;;;14.30;70.00;99092.59;4822615;29;20531;-79
2023/06/26 00:52:37;;;;;;;0.40;0.40;;;;;;;14.25;70.23;99091.75;4791688;29;20058;-80
2023/06/26 00:55:05;;;;;;;0.40;0.40;;;;;;;14.21;70.49;99096.91;4828166;29;20058;-80
2023/06/26 00:57:32;;;;;;;0.40;0.40;;;;;;;14.13;70.81;99089.28;4809649;29;20053;-80
2023/06/26 01:00:01;;;;;;;0.40;0.40;;;;;;;14.09;71.31;99091.69;4840866;29;20050;-80
2023/06/26 01:02:33;;;;;;;0.40;0.40;;;;;;;14.06;71.26;99091.44;4840784;29;20551;-80
2023/06/26 01:05:03;;;;;;;0.40;0.40;;;;;;;14.01;71.65;99088.69;4824185;29;20077;-80
2023/06/26 01:07:32;;;;;;;0.40;0.40;;;;;;;13.96;71.95;99091.38;4824344;29;20077;-80
2023/06/26 01:09:59;;;;;;;0.32;0.32;;;;;;;13.91;72.10;99096.78;4824109;29;20050;-80
2023/06/26 01:12:26;;;;;;;0.40;0.40;;;;;;;13.82;72.54;99088.31;4824419;29;20191;-80
2023/06/26 01:14:53;;;;;;;0.40;0.40;;;;;;;13.77;72.63;99075.53;4840464;29;20137;-80
2023/06/26 01:17:21;;;;;;;0.40;0.40;;;;;;;13.72;72.70;99083.66;4824227;29;20054;-80
2023/06/26 01:19:49;;;;;;;0.40;0.40;;;;;;;13.79;72.76;99083.41;4840569;29;20058;-80
2023/06/26 01:22:32;;;;;;;0.40;0.40;;;;;;;13.83;72.97;99093.50;4840484;29;20054;-80
2023/06/26 01:25:38;;;;;;;0.40;0.40;;;;;;;13.84;73.11;99091.59;4823991;29;20066;-80
2023/06/26 01:28:09;;;;;;;0.40;0.40;;;;;;;13.82;72.55;99100.00;4732929;30;20157;-80
2023/06/26 01:30:43;;;;;;;0.40;0.40;;;;;;;13.84;72.67;99095.09;4748224;30;20573;-81
2023/06/26 01:33:12;;;;;;;0.40;0.40;;;;;;;13.81;72.92;99092.94;4733484;30;20161;-81
2023/06/26 01:35:40;;;;;;;0.40;0.40;;;;;;;13.86;72.80;99101.09;4747864;30;20294;-81
2023/06/26 01:38:17;;;;;;;0.40;0.40;;;;;;;13.87;72.95;99100.03;4733313;30;20192;-80
2023/06/26 01:40:44;;;;;;;0.40;0.40;;;;;;;13.76;72.81;99084.75;4748055;30;20052;-81
2023/06/26 01:43:20;;;;;;;0.40;0.40;;;;;;;13.87;73.00;99100.03;4732923;30;20074;-81
2023/06/26 01:45:51;;;;;;;0.50;0.50;;;;;;;13.86;73.09;99097.56;4748053;30;20536;-80
2023/06/26 01:48:23;;;;;;;0.40;0.40;;;;;;;13.83;72.87;99092.69;4733456;30;20087;-81
2023/06/26 01:50:52;;;;;;;0.40;0.40;;;;;;;13.83;72.75;99085.34;4733544;30;20130;-80
2023/06/26 01:53:21;;;;;;;0.43;0.43;;;;;;;13.85;72.68;99088.63;4732967;30;20594;-80
2023/06/26 01:55:54;;;;;;;0.50;0.50;;;;;;;13.82;72.69;99085.59;4733272;30;20079;-80
2023/06/26 01:58:24;;;;;;;0.40;0.40;;;;;;;13.92;72.82;99099.22;4718640;30;20694;-80
2023/06/26 02:00:51;;;;;;;0.40;0.40;;;;;;;13.98;72.52;99102.78;4747630;30;20078;-80
2023/06/26 02:03:19;;;;;;;0.30;0.30;;;;;;;13.96;72.56;99094.91;4732875;30;20056;-80
2023/06/26 02:05:47;;;;;;;0.40;0.40;;;;;;;13.99;72.40;99099.78;4821888;29;20080;-80
2023/06/26 02:08:17;;;;;;;0.40;0.40;;;;;;;13.97;72.42;99101.13;4805492;29;20042;-81
2023/06/26 02:10:48;;;;;;;0.45;0.45;;;;;;;13.95;72.48;99103.28;4838171;29;20088;-80
2023/06/26 02:13:16;;;;;;;0.40;0.40;;;;;;;13.91;72.46;99099.50;4839584;29;20092;-80
2023/06/26 02:15:43;;;;;;;0.40;0.40;;;;;;;13.94;72.54;99105.19;4823421;29;20056;-80
2023/06/26 02:18:10;;;;;;;0.50;0.50;;;;;;;13.97;72.51;99106.56;4823348;29;20532;-80
2023/06/26 02:20:37;;;;;;;0.40;0.40;;;;;;;13.94;72.51;99088.91;4839827;29;20106;-80
2023/06/26 02:23:05;;;;;;;0.38;0.38;;;;;;;14.07;72.57;99093.03;4839519;29;20088;-80
2023/06/26 02:25:36;;;;;;;0.40;0.40;;;;;;;14.09;72.48;99088.16;4839533;29;20525;-80
2023/06/26 02:28:03;;;;;;;0.50;0.50;;;;;;;14.21;72.07;99101.53;4841263;29;20089;-80
2023/06/26 02:30:30;;;;;;;0.50;0.50;;;;;;;14.37;72.04;99105.09;4839240;29;20046;-80
2023/06/26 02:32:59;;;;;;;0.40;0.40;;;;;;;14.53;71.75;99104.06;4824846;29;20068;-80
2023/06/26 02:35:26;;;;;;;0.40;0.40;;;;;;;14.65;71.45;99092.97;4825072;29;20054;-80
2023/06/26 02:37:53;;;;;;;0.50;0.50;;;;;;;14.73;70.98;99095.97;4843074;29;20421;-80
2023/06/26 02:40:20;;;;;;;0.40;0.40;;;;;;;14.82;70.98;99095.47;4843432;29;20394;-80
2023/06/26 02:42:48;;;;;;;0.40;0.40;;;;;;;14.90;70.82;99090.28;4827108;29;20053;-80
2023/06/26 02:45:16;;;;;;;0.40;0.40;;;;;;;15.08;70.37;99096.28;4826523;29;20053;-80
2023/06/26 02:47:44;;;;;;;0.40;0.40;;;;;;;15.20;69.86;99082.41;4826650;29;20144;-80
2023/06/26 02:50:11;;;;;;;0.40;0.40;;;;;;;15.38;69.49;99087.28;4826439;29;20060;-80
2023/06/26 02:52:57;;;;;;;0.50;0.50;;;;;;;15.44;69.09;99086.19;4842960;29;20061;-80
2023/06/26 02:55:25;;;;;;;0.40;0.40;;;;;;;15.62;68.58;99084.78;4826525;29;20483;-80
2023/06/26 02:57:53;;;;;;;0.50;0.50;;;;;;;15.78;67.91;99085.63;4826513;29;20050;-80
2023/06/26 03:00:21;;;;;;;0.50;0.50;;;;;;;15.97;67.24;99085.81;4826674;29;20525;-80
2023/06/26 03:02:50;;;;;;;0.47;0.47;;;;;;;16.18;66.76;99081.09;4827547;29;20089;-80
2023/06/26 03:05:19;;;;;;;0.40;0.40;;;;;;;16.33;65.87;99082.94;4827247;29;20423;-80
2023/06/26 03:07:47;;;;;;;0.30;0.30;;;;;;;16.56;64.87;99090.44;4825976;29;20634;-80
2023/06/26 03:10:14;;;;;;;0.40;0.40;;;;;;;16.78;64.03;99090.03;4826343;29;20075;-80
2023/06/26 03:12:43;;;;;;;0.40;0.40;;;;;;;16.98;62.82;99088.28;4826449;29;20505;-79
2023/06/26 03:15:11;;;;;;;0.40;0.40;;;;;;;17.19;61.84;99089.75;4825915;29;20045;-80
2023/06/26 03:17:39;;;;;;;0.40;0.40;;;;;;;17.36;60.89;99083.84;4826331;29;20053;-80
2023/06/26 03:20:10;;;;;;;0.40;0.40;;;;;;;17.57;60.39;99081.72;4811705;29;20529;-80
2023/06/26 03:22:58;;;;;;;0.40;0.40;;;;;;;17.74;59.10;99082.09;4819061;29;20065;-79
2023/06/26 03:25:25;;;;;;;0.40;0.40;;;;;;;17.83;58.25;99068.66;4833617;29;20066;-79
2023/06/26 03:28:03;;;;;;;0.40;0.40;;;;;;;18.07;58.15;99086.94;4809324;29;20085;-79
2023/06/26 03:30:32;;;;;;;0.40;0.40;;;;;;;18.05;57.96;99061.84;4808355;29;20509;-79
2023/06/26 03:33:00;;;;;;;0.40;0.40;;;;;;;18.32;56.76;99085.81;4811577;29;20504;-78
2023/06/26 03:35:27;;;;;;;0.40;0.40;;;;;;;18.46;55.89;99083.16;4826128;29;20513;-79
2023/06/26 03:37:58;;;;;;;0.40;0.40;;;;;;;18.58;54.88;99081.63;4814135;29;20050;-79
2023/06/26 03:40:25;;;;;;;0.40;0.40;;;;;;;18.70;54.52;99083.09;4819597;29;20050;-79
2023/06/26 03:42:52;;;;;;;0.40;0.40;;;;;;;18.84;53.78;99081.28;4832308;29;20160;-79
2023/06/26 03:45:19;;;;;;;0.40;0.40;;;;;;;18.95;52.97;99074.53;4816336;29;20050;-78
2023/06/26 03:47:49;;;;;;;0.40;0.40;;;;;;;18.96;52.44;99064.41;4813794;29;20506;-79
2023/06/26 03:50:16;;;;;;;0.40;0.40;;;;;;;19.10;52.37;99076.22;4798765;29;20069;-78
2023/06/26 03:52:43;;;;;;;0.40;0.40;;;;;;;19.13;51.76;99061.13;4836467;29;20574;-79
2023/06/26 03:55:12;;;;;;;0.30;0.30;;;;;;;19.32;51.20;99070.09;4810591;29;20107;-80
2023/06/26 03:57:40;;;;;;;0.40;0.40;;;;;;;19.48;50.95;99067.88;4842085;29;20541;-79
2023/06/26 04:00:11;;;;;;;0.40;0.40;;;;;;;19.65;50.35;99067.31;4841701;29;20058;-80
2023/06/26 04:02:40;;;;;;;0.40;0.40;;;;;;;19.72;49.92;99056.78;4822534;29;20062;-79
2023/06/26 04:05:08;;;;;;;0.40;0.40;;;;;;;19.78;49.75;99063.78;4814977;29;20051;-79
2023/06/26 04:07:37;;;;;;;0.40;0.40;;;;;;;19.94;49.74;99060.75;4807188;29;20082;-79
2023/06/26 04:10:06;;;;;;;0.40;0.40;;;;;;;20.03;49.30;99059.72;4819495;29;20050;-79
2023/06/26 04:12:34;;;;;;;0.32;0.32;;;;;;;20.04;48.88;99064.09;4811135;29;20064;-80
2023/06/26 04:15:04;;;;;;;0.30;0.30;;;;;;;20.13;48.45;99066.94;4841531;29;20502;-80
2023/06/26 04:17:31;;;;;;;0.40;0.40;;;;;;;20.20;48.78;99078.25;4817361;29;20057;-79
2023/06/26 04:19:59;;;;;;;0.40;0.40;;;;;;;20.26;48.77;99068.84;4824158;29;20107;-81
2023/06/26 04:22:26;;;;;;;0.40;0.40;;;;;;;20.38;48.87;99073.75;4831156;29;20158;-81
2023/06/26 04:24:53;;;;;;;0.30;0.30;;;;;;;20.50;48.65;99071.31;4806836;29;20064;-81
2023/06/26 04:27:20;;;;;;;0.30;0.30;;;;;;;20.58;48.60;99072.53;4809075;29;20059;-82
2023/06/26 04:29:48;;;;;;;0.30;0.30;;;;;;;20.52;47.87;99060.03;4831296;29;20078;-81
2023/06/26 04:32:15;;;;;;;0.40;0.40;;;;;;;20.66;48.06;99066.34;4822941;29;20123;-81
2023/06/26 04:34:45;;;;;;;0.30;0.30;;;;;;;20.78;47.83;99069.31;4823089;29;20510;-80
2023/06/26 04:37:18;;;;;;;0.40;0.40;;;;;;;20.97;47.12;99047.22;4822655;29;20116;-81
2023/06/26 04:39:45;;;;;;;0.40;0.40;;;;;;;21.30;46.73;99065.34;4831051;29;20474;-81
2023/06/26 04:42:12;;;;;;;0.40;0.40;;;;;;;21.45;45.84;99069.66;4840890;29;20591;-81
2023/06/26 04:44:40;;;;;;;0.40;0.40;;;;;;;21.58;44.98;99063.25;4820528;29;20137;-84
2023/06/26 04:47:08;;;;;;;0.40;0.40;;;;;;;21.71;43.93;99075.25;4832725;29;20111;-81
2023/06/26 04:49:36;;;;;;;0.40;0.40;;;;;;;21.74;43.89;99066.38;4828633;29;20070;-82
2023/06/26 04:52:09;;;;;;;0.40;0.40;;;;;;;21.75;43.69;99063.34;4815647;29;20047;-81
2023/06/26 04:54:36;;;;;;;0.40;0.40;;;;;;;21.73;43.43;99062.03;4806411;29;20083;-81
2023/06/26 04:57:04;;;;;;;0.30;0.30;;;;;;;21.80;42.69;99063.19;4811651;29;20078;-82
2023/06/26 04:59:31;;;;;;;0.30;0.30;;;;;;;21.80;42.91;99062.34;4840856;29;20077;-83
2023/06/26 05:01:58;;;;;;;0.30;0.30;;;;;;;21.85;42.09;99071.28;4838956;29;20114;-81
2023/06/26 05:04:25;;;;;;;0.30;0.30;;;;;;;21.90;42.22;99073.06;4824224;29;20456;-81
2023/06/26 05:06:52;;;;;;;0.30;0.30;;;;;;;21.79;41.97;99058.81;4824794;29;20077;-81
2023/06/26 05:09:20;;;;;;;0.30;0.30;;;;;;;21.82;42.18;99060.09;4840612;29;20050;-81
2023/06/26 05:11:47;;;;;;;0.40;0.40;;;;;;;22.03;41.80;99065.84;4840784;29;20058;-81
2023/06/26 05:17:24;;;;;;;0.30;0.30;;;;;;;22.12;41.63;99068.63;4842245;29;20073;-81
2023/06/26 05:19:52;;;;;;;0.30;0.30;;;;;;;22.07;41.17;99056.63;4830053;29;20053;-81
2023/06/26 05:22:23;;;;;;;0.30;0.30;;;;;;;22.10;41.32;99060.69;4831935;29;20488;-81
2023/06/26 05:24:55;;;;;;;0.30;0.30;;;;;;;21.97;41.58;99056.91;4846050;29;20532;-81
2023/06/26 05:27:25;;;;;;;0.30;0.30;;;;;;;22.00;41.94;99055.47;4843883;29;20058;-81
2023/06/26 05:29:56;;;;;;;0.30;0.30;;;;;;;22.01;42.09;99060.66;4826098;29;20054;-81
2023/06/26 05:32:23;;;;;;;0.30;0.30;;;;;;;22.00;42.63;99037.06;4840129;29;20056;-81
2023/06/26 05:34:51;;;;;;;0.30;0.30;;;;;;;22.28;42.76;99067.06;4824018;29;20042;-81
2023/06/26 05:37:22;;;;;;;0.30;0.30;;;;;;;22.19;42.24;99055.22;4823593;29;20049;-81
2023/06/26 05:39:50;;;;;;;0.30;0.30;;;;;;;22.26;42.11;99052.84;4840229;29;20046;-81
2023/06/26 05:42:17;;;;;;;0.30;0.30;;;;;;;22.39;41.57;99060.13;4840068;29;20062;-81
2023/06/26 05:44:45;;;;;;;0.30;0.30;;;;;;;22.40;40.37;99053.50;4823903;29;20050;-82
2023/06/26 05:47:13;;;;;;;0.30;0.30;;;;;;;22.47;39.83;99051.06;4839781;29;20049;-82
2023/06/26 05:49:59;;;;;;;0.30;0.30;;;;;;;22.56;40.19;99061.25;4840345;29;20053;-82
2023/06/26 05:55:31;;;;;;;0.30;0.30;;;;;;;22.62;39.37;99049.78;4839779;29;20144;-82
2023/06/26 05:57:59;;;;;;;0.30;0.30;;;;;;;22.48;38.95;99054.63;4839702;29;20052;-81
2023/06/26 06:00:27;;;;;;;0.30;0.30;;;;;;;22.49;39.60;99051.56;4823860;29;20276;-80
2023/06/26 06:03:13;;;;;;;0.30;0.30;;;;;;;22.55;39.74;99059.66;4839090;29;20065;-81
2023/06/26 06:05:41;;;;;;;0.30;0.30;;;;;;;22.69;40.01;99055.63;4823318;29;20073;-81
2023/06/26 06:11:15;;;;;;;0.30;0.30;;;;;;;22.77;40.39;99056.75;4840802;29;20085;-82
2023/06/26 06:13:42;;;;;;;0.30;0.30;;;;;;;22.83;40.01;99052.69;4836278;29;20056;-82
2023/06/26 06:16:12;;;;;;;0.30;0.30;;;;;;;22.87;40.56;99056.41;4806503;29;20627;-81
2023/06/26 06:18:39;;;;;;;0.30;0.30;;;;;;;22.99;40.34;99054.97;4822022;29;20054;-81
2023/06/26 06:21:06;;;;;;;0.30;0.30;;;;;;;23.10;39.71;99051.56;4825578;29;20702;-81
2023/06/26 06:23:38;;;;;;;0.30;0.30;;;;;;;23.04;38.70;99038.28;4814064;29;20073;-81
2023/06/26 06:26:05;;;;;;;0.30;0.30;;;;;;;23.04;38.70;99038.28;4801043;29;20074;-81
2023/06/26 06:28:32;;;;;;;0.30;0.30;;;;;;;23.19;39.33;99047.97;4833133;29;20123;-82
2023/06/26 06:31:02;;;;;;;0.30;0.30;;;;;;;23.16;39.33;99041.19;4833806;29;20448;-83
2023/06/26 06:33:29;;;;;;;0.30;0.30;;;;;;;23.36;38.84;99051.50;4831173;29;20111;-81
2023/06/26 06:35:56;;;;;;;0.30;0.30;;;;;;;23.36;38.31;99046.00;4819186;29;20050;-84
2023/06/26 06:38:43;;;;;;;0.30;0.30;;;;;;;23.43;38.10;99050.19;4797476;29;20822;-83
2023/06/26 06:41:29;;;;;;;0.30;0.30;;;;;;;23.33;36.25;99043.91;4831773;29;20069;-82
2023/06/26 06:43:56;;;;;;;0.30;0.30;;;;;;;23.33;36.80;99040.34;4839590;29;20058;-82
2023/06/26 06:46:26;;;;;;;0.30;0.30;;;;;;;23.26;37.28;99043.59;4837683;29;20062;-82
2023/06/26 06:51:58;;;;;;;0.30;0.30;;;;;;;23.09;38.25;99041.69;4832958;29;20060;-82
2023/06/26 06:54:29;;;;;;;0.30;0.30;;;;;;;23.07;37.52;99019.19;4820003;29;20165;-81
2023/06/26 06:56:57;;;;;;;0.30;0.30;;;;;;;23.12;36.88;99038.28;4831249;29;20172;-81
2023/06/26 06:59:24;;;;;;;0.38;0.38;;;;;;;23.23;36.72;99035.19;4835722;29;20068;-81
2023/06/26 07:02:10;;;;;;;0.30;0.30;;;;;;;23.38;36.19;99042.91;4831955;29;20079;-81
2023/06/26 07:08:02;;;;;;;0.30;0.30;;;;;;;23.63;36.05;99041.22;4829284;29;20082;-81
2023/06/26 07:10:30;;;;;;;0.30;0.30;;;;;;;23.75;36.24;99035.84;4834543;29;20050;-82
2023/06/26 07:15:43;;;;;;;0.30;0.30;;;;;;;23.94;35.26;99046.44;4846227;23;20464;-81
2023/06/26 07:18:11;;;;;;;0.30;0.30;;;;;;;24.04;35.14;99042.50;4848351;29;20060;-80
2023/06/26 07:23:23;;;;;;;0.30;0.30;;;;;;;24.23;35.42;99031.03;4849788;29;20050;-81
2023/06/26 07:25:51;;;;;;;0.30;0.30;;;;;;;24.40;34.98;99032.84;4828117;29;20050;-81
2023/06/26 07:28:37;;;;;;;0.30;0.30;;;;;;;24.45;34.77;99029.94;4819472;29;20046;-80
2023/06/26 07:31:04;;;;;;;0.30;0.30;;;;;;;24.46;34.47;99023.28;4842560;29;20148;-80
2023/06/26 07:33:34;;;;;;;0.30;0.30;;;;;;;24.54;34.21;99027.91;4847552;29;20115;-80
2023/06/26 07:36:02;;;;;;;0.30;0.30;;;;;;;24.40;34.20;99021.81;4820294;29;20077;-79
2023/06/26 07:38:29;;;;;;;0.30;0.30;;;;;;;24.57;34.00;99026.44;4849302;29;20077;-78
2023/06/26 07:40:56;;;;;;;0.30;0.30;;;;;;;24.80;34.40;99018.59;4854471;29;20061;-80
2023/06/26 07:43:23;;;;;;;0.30;0.30;;;;;;;24.78;34.34;99015.38;4860640;29;20063;-79
2023/06/26 07:45:53;;;;;;;0.30;0.30;;;;;;;24.91;33.74;99022.56;4856872;29;20157;-80
2023/06/26 07:51:06;;;;;;;0.30;0.30;;;;;;;25.47;32.91;98998.13;4855926;29;20100;-82
2023/06/26 07:53:52;;;;;;;0.35;0.35;;;;;;;25.76;32.43;99012.06;4847065;29;20126;-80
2023/06/26 07:56:20;;;;;;;0.40;0.40;;;;;;;26.03;31.26;99010.56;4855213;29;20077;-80
2023/06/26 07:58:49;;;;;;;0.40;0.40;;;;;;;26.02;30.69;99006.19;4844203;29;20410;-80
2023/06/26 08:01:16;;;;;;;0.30;0.30;;;;;;;26.07;31.24;99008.72;4842705;29;20100;-81
2023/06/26 08:03:43;;;;;;;0.30;0.30;;;;;;;26.08;30.54;99005.63;4842805;29;20073;-81
2023/06/26 08:09:16;;;;;;;;;;;;;;;26.63;30.72;99006.06;4847111;29;20061;-81
2023/06/26 08:11:44;;;;;;;0.30;0.30;;;;;;;26.76;30.00;98999.34;4828621;29;19928;-81
2023/06/26 08:14:31;;;;;;;0.40;0.40;;;;;;;27.01;29.11;99002.78;4831326;29;20049;-81
2023/06/26 08:16:59;;;;;;;0.40;0.40;;;;;;;26.97;29.21;98998.31;4810214;29;20487;-81
2023/06/26 08:19:26;;;;;;;0.40;0.40;;;;;;;26.99;28.07;99005.13;4825018;29;20144;-81
2023/06/26 08:21:54;;;;;;;0.32;0.32;;;;;;;27.25;27.05;99008.59;4841479;29;20144;-81
2023/06/26 08:24:21;;;;;;;0.30;0.30;;;;;;;26.99;27.53;99004.28;4841304;29;20058;-81
2023/06/26 08:27:26;;;;;;;0.40;0.40;;;;;;;27.19;27.50;99019.09;4776398;29;20547;-81
2023/06/26 08:29:53;;;;;;;0.30;0.30;;;;;;;27.61;26.33;99019.41;4807383;29;20088;-81
2023/06/26 08:32:39;;;;;;;0.32;0.32;;;;;;;27.81;26.51;99016.72;4829254;29;20061;-81
2023/06/26 08:35:25;;;;;;;0.30;0.30;;;;;;;28.17;27.07;99017.56;4824909;29;20474;-81
2023/06/26 08:38:11;;;;;;;0.30;0.30;;;;;;;28.23;27.26;99016.94;4841057;29;20467;-81
2023/06/26 08:40:57;;;;;;;0.30;0.30;;;;;;;28.59;26.07;99016.91;4841289;29;20058;-81
2023/06/26 08:43:43;;;;;;;0.30;0.30;;;;;;;28.45;26.39;99009.91;4809723;29;20053;-81
2023/06/26 08:46:32;;;;;;;0.30;0.30;;;;;;;28.26;27.09;99010.66;4837236;29;20082;-80
2023/06/26 08:49:41;;;;;;;0.30;0.30;;;;;;;28.53;26.93;98999.75;4832396;29;20058;-81
2023/06/26 08:52:22;;;;;;;0.30;0.30;;;;;;;28.75;26.26;99003.78;4797765;29;20476;-82
2023/06/26 08:54:58;;;;;;;0.30;0.30;;;;;;;28.72;25.57;98998.97;4839791;29;20081;-81
2023/06/26 09:00:14;;;;;;;0.35;0.35;;;;;;;28.69;25.26;98996.91;4820310;29;20050;-82
2023/06/26 09:03:19;;;;;;;0.40;0.40;;;;;;;28.75;25.15;98995.44;4808872;29;20137;-82
2023/06/26 09:05:47;;;;;;;0.40;0.40;;;;;;;29.43;24.77;98984.81;4822853;29;20058;-82
2023/06/26 09:08:51;;;;;;;0.40;0.40;;;;;;;30.35;24.51;98991.00;4806916;29;20484;-82
2023/06/26 09:11:37;;;;;;;0.40;0.40;;;;;;;30.71;23.44;98988.66;4806282;29;20047;-82
2023/06/26 09:14:23;;;;;;;0.40;0.40;;;;;;;30.31;23.95;98972.66;4822235;29;20054;-82
2023/06/26 09:16:50;;;;;;;0.20;0.20;;;;;;;29.81;24.17;98975.53;4822341;29;20429;-82
2023/06/26 09:19:18;;;;;;;0.20;0.20;;;;;;;28.95;25.45;98974.81;4806209;29;20054;-82
2023/06/26 09:21:49;;;;;;;0.20;0.20;;;;;;;28.51;25.89;98989.03;4822134;29;20511;-82
2023/06/26 09:24:35;;;;;;;0.30;0.30;;;;;;;28.15;26.45;98969.97;4822383;29;20510;-81
2023/06/26 09:27:02;;;;;;;0.30;0.30;;;;;;;28.92;25.42;98991.41;4822075;29;20149;-82
2023/06/26 09:29:29;;;;;;;0.20;0.20;;;;;;;28.95;25.30;98985.13;4822410;29;20096;-82
2023/06/26 09:31:57;;;;;;;0.30;0.30;;;;;;;29.54;24.96;98974.66;4806437;29;20057;-82
2023/06/26 09:34:30;;;;;;;0.20;0.20;;;;;;;29.61;25.13;98969.22;4823900;29;20050;-82
2023/06/26 09:36:58;;;;;;;0.10;0.10;;;;;;;28.85;26.14;98971.84;4839670;29;20089;-82
2023/06/26 09:39:25;;;;;;;0.20;0.20;;;;;;;28.05;27.03;98972.13;4840364;29;20425;-82
2023/06/26 09:41:56;;;;;;;0.20;0.20;;;;;;;27.55;27.31;98970.97;4840143;29;20068;-82
2023/06/26 09:44:24;;;;;;;0.20;0.20;;;;;;;27.17;27.19;98963.25;4840077;29;20061;-82
2023/06/26 09:49:41;;;;;;;0.20;0.20;;;;;;;26.86;27.50;98956.47;4840048;29;20085;-82
2023/06/26 09:52:09;;;;;;;0.20;0.20;;;;;;;26.85;27.63;98968.72;4823716;29;20093;-82
2023/06/26 09:54:36;;;;;;;0.30;0.30;;;;;;;26.67;27.64;98959.94;4839764;29;20145;-82
2023/06/26 09:57:11;;;;;;;0.20;0.20;;;;;;;26.62;27.13;98967.69;4839658;29;20079;-83
2023/06/26 09:59:39;;;;;;;0.20;0.20;;;;;;;26.44;26.46;98967.94;4839873;29;20053;-82
2023/06/26 11:06:24;;;;;;;0.20;0.20;;;;;;;31.99;22.53;98907.41;5016195;27;3534149;-85
2023/06/26 11:09:07;;;;;;;0.43;0.43;;;;;;;32.84;21.35;98913.69;5107681;28;20044;-84
2023/06/26 11:11:57;;;;;;;0.40;0.40;;;;;;;34.09;20.45;98910.88;5090509;28;20046;-86
2023/06/26 11:14:27;;;;;;;0.40;0.40;;;;;;;35.03;19.47;98897.97;5108176;28;20048;-85
2023/06/26 11:16:57;;;;;;;0.40;0.40;;;;;;;35.76;19.28;98922.22;5107350;28;20054;-83
2023/06/26 11:19:27;;;;;;;0.38;0.38;;;;;;;36.18;18.23;98922.19;5056777;28;20148;-82
2023/06/26 11:22:00;;;;;;;0.30;0.30;;;;;;;35.18;18.84;98904.31;5090230;28;20044;-84
2023/06/26 11:24:28;;;;;;;0.10;0.10;;;;;;;33.34;20.43;98913.75;5112562;28;20050;-83
2023/06/26 11:27:00;;;;;;;0.10;0.10;;;;;;;31.28;22.53;98916.03;5090534;28;20236;-84
2023/06/26 11:29:27;;;;;;;0.10;0.10;;;;;;;30.16;23.80;98907.66;5107922;28;20553;-85
2023/06/26 11:32:09;;;;;;;0.10;0.10;;;;;;;29.49;24.86;98903.50;5107581;28;20781;-85
2023/06/26 11:34:37;;;;;;;0.10;0.10;;;;;;;28.61;25.63;98892.44;5089762;28;20044;-86
2023/06/26 11:37:09;;;;;;;0.10;0.10;;;;;;;28.00;26.56;98907.81;5090710;28;20401;-87
2023/06/26 11:39:37;;;;;;;0.10;0.10;;;;;;;27.47;27.36;98901.84;5072621;28;20448;-87
2023/06/26 11:42:05;;;;;;;0.10;0.10;;;;;;;27.14;27.82;98909.34;5089900;28;20048;-86
2023/06/26 11:44:32;;;;;;;0.10;0.10;;;;;;;26.74;28.04;98915.84;5072756;28;20044;-86
2023/06/26 11:46:59;;;;;;;0.10;0.10;;;;;;;26.45;28.96;98907.88;5108701;28;20040;-87
2023/06/26 11:50:10;;;;;;;0.17;0.17;;;;;;;26.25;29.31;98904.16;5089711;28;20067;-85
2023/06/26 11:52:43;;;;;;;0.20;0.20;;;;;;;26.37;28.95;98904.09;5107498;28;20078;-89
2023/06/26 11:55:11;;;;;;;0.20;0.20;;;;;;;27.72;27.78;98886.59;5106842;28;20540;-83
2023/06/26 11:57:38;;;;;;;0.60;0.60;;;;;;;30.73;24.79;98897.19;5105447;28;20044;-85
2023/06/26 12:00:16;;;;;;;0.50;0.50;;;;;;;33.11;22.09;98887.00;5087590;28;20039;-84
2023/06/26 12:02:49;;;;;;;0.30;0.30;;;;;;;34.62;20.75;98881.06;5078464;28;20082;-84
2023/06/26 12:05:23;;;;;;;0.40;0.40;;;;;;;34.95;19.77;98868.41;5097575;28;20085;-83
2023/06/26 12:07:51;;;;;;;0.40;0.40;;;;;;;35.59;19.62;98884.72;5066224;28;20383;-83
2023/06/26 12:10:19;;;;;;;0.20;0.20;;;;;;;35.58;19.39;98877.50;5059737;28;20063;-84
2023/06/26 12:12:46;;;;;;;0.20;0.20;;;;;;;34.64;19.82;98870.22;5073462;28;20052;-83
2023/06/26 12:15:16;;;;;;;0.20;0.20;;;;;;;34.53;19.92;98871.03;5078661;28;20066;-82
2023/06/26 12:17:43;;;;;;;0.40;0.40;;;;;;;35.11;19.39;98853.88;5087852;28;20059;-82
2023/06/26 12:20:25;;;;;;;0.30;0.30;;;;;;;35.60;19.01;98857.44;5075117;28;20052;-84
2023/06/26 12:22:52;;;;;;;0.10;0.10;;;;;;;34.90;19.42;98854.84;5075084;28;20047;-83
2023/06/26 12:25:23;;;;;;;0.40;0.40;;;;;;;34.91;19.38;98848.81;5093185;28;20051;-83
2023/06/26 12:27:53;;;;;;;0.50;0.50;;;;;;;34.70;19.03;98857.38;5092856;28;20086;-83
2023/06/26 12:30:33;;;;;;;0.10;0.10;;;;;;;34.38;19.27;98858.34;5075045;28;20552;-83
2023/06/26 12:33:12;;;;;;;0.30;0.30;;;;;;;34.92;18.88;98853.22;5080511;28;20135;-83
2023/06/26 12:35:39;;;;;;;0.40;0.40;;;;;;;36.38;17.92;98846.50;5068931;28;20117;-82
2023/06/26 12:38:17;;;;;;;0.40;0.40;;;;;;;36.96;16.86;98830.38;5059416;28;20040;-83
2023/06/26 12:40:47;;;;;;;0.30;0.30;;;;;;;37.31;16.03;98837.41;5070857;28;20180;-82
2023/06/26 12:43:23;;;;;;;0.30;0.30;;;;;;;37.47;15.67;98836.72;5079170;28;20056;-82
2023/06/26 12:46:00;;;;;;;0.30;0.30;;;;;;;37.52;15.57;98835.47;5061571;28;20052;-85
2023/06/26 12:48:43;;;;;;;0.40;0.40;;;;;;;37.65;15.33;98832.78;5054390;28;20476;-84
2023/06/26 12:51:13;;;;;;;0.30;0.30;;;;;;;38.03;14.79;98835.28;5072010;28;20053;-82
2023/06/26 12:53:40;;;;;;;0.30;0.30;;;;;;;38.32;15.42;98841.09;5060102;28;20055;-83
2023/06/26 12:56:11;;;;;;;0.30;0.30;;;;;;;39.19;14.90;98841.44;5063166;28;20048;-84
2023/06/26 12:58:38;;;;;;;0.30;0.30;;;;;;;39.82;14.26;98845.06;5081322;28;20049;-83
2023/06/26 13:01:13;;;;;;;0.30;0.30;;;;;;;40.13;13.71;98838.91;5054225;28;20052;-83
2023/06/26 13:04:03;;;;;;;0.30;0.30;;;;;;;40.04;13.83;98843.19;5028506;28;20107;-83
2023/06/26 13:06:31;;;;;;;0.30;0.30;;;;;;;39.91;13.85;98831.09;5072331;28;20076;-85
2023/06/26 13:08:58;;;;;;;0.30;0.30;;;;;;;40.17;14.01;98828.31;5071128;28;20056;-84
2023/06/26 13:11:25;;;;;;;0.30;0.30;;;;;;;40.14;13.73;98823.56;5074591;28;20094;-83
2023/06/26 13:13:52;;;;;;;0.40;0.40;;;;;;;40.30;13.94;98826.31;5061130;28;20525;-84
2023/06/26 13:16:36;;;;;;;0.10;0.10;;;;;;;36.83;16.71;98809.69;5069056;28;20052;-84
2023/06/26 13:19:04;;;;;;;0.30;0.30;;;;;;;35.86;17.89;98824.28;5067401;28;20048;-83
2023/06/26 13:21:38;;;;;;;;;;;;;;;34.27;19.35;98818.41;5092491;28;20051;-83
2023/06/26 13:24:05;;;;;;;0.10;0.10;;;;;;;32.43;21.12;98814.22;5073209;28;19993;-84
2023/06/26 13:26:32;;;;;;;0.10;0.10;;;;;;;30.98;22.44;98802.72;5060868;28;20048;-81
2023/06/26 13:29:05;;;;;;;0.10;0.10;;;;;;;29.89;23.62;98812.31;5064269;28;20080;-81